Time;durP1;ratioP1;P1;durP2;ratioP2;P2;SDS_P1;SDS_P2;PMS_P1;PMS_P2;Temp;Humidity;BMP_temperature;BMP_pressure;BME280_temperature;BME280_humidity;BME280_pressure;Samples;Min_cycle;Max_cycle;Signal;HPM_P1;HPM_P2
2022/03/31 00:00:38;;;;;;;17.13;12.27;;;7.90;99.90;;;;;;5065673;28;20454;-71
2022/03/31 00:03:06;;;;;;;18.33;13.20;;;7.80;99.90;;;;;;5067971;28;20490;-71
2022/03/31 00:05:32;;;;;;;18.97;13.23;;;7.80;99.90;;;;;;5065785;28;20427;-71
2022/03/31 00:08:03;;;;;;;16.83;12.33;;;7.80;99.90;;;;;;5066796;28;20795;-71
2022/03/31 00:10:40;;;;;;;16.47;11.83;;;7.70;99.90;;;;;;5058192;28;20274;-71
2022/03/31 00:13:10;;;;;;;18.30;12.60;;;7.70;99.90;;;;;;5061191;28;20959;-71
2022/03/31 00:15:35;;;;;;;18.63;12.27;;;7.60;99.90;;;;;;5044754;28;20428;-71
2022/03/31 00:18:04;;;;;;;16.30;11.60;;;7.60;99.90;;;;;;5047909;28;20880;-71
2022/03/31 00:20:29;;;;;;;17.03;12.00;;;7.50;99.90;;;;;;5068612;28;20211;-71
2022/03/31 00:22:55;;;;;;;17.93;11.70;;;7.50;99.90;;;;;;5052560;28;20435;-71
2022/03/31 00:25:26;;;;;;;15.87;10.93;;;7.60;99.90;;;;;;5052803;28;20176;-71
2022/03/31 00:27:52;;;;;;;15.63;10.37;;;7.50;99.90;;;;;;5066666;28;20415;-71
2022/03/31 00:30:18;;;;;;;15.43;11.30;;;7.50;99.90;;;;;;5067156;28;20647;-71
2022/03/31 00:32:44;;;;;;;14.70;10.93;;;7.50;99.90;;;;;;5067052;28;20230;-71
2022/03/31 00:35:12;;;;;;;15.03;11.33;;;7.40;99.90;;;;;;5068135;28;20177;-71
2022/03/31 00:37:39;;;;;;;19.67;12.50;;;7.40;99.90;;;;;;5065231;28;20181;-71
2022/03/31 00:40:06;;;;;;;19.30;12.93;;;7.70;99.90;;;;;;5065960;28;20466;-71
2022/03/31 00:42:32;;;;;;;17.90;12.10;;;;;;;;;;5061292;28;20917;-71
2022/03/31 00:44:58;;;;;;;17.00;12.47;;;7.30;99.90;;;;;;5050770;28;20453;-70
2022/03/31 00:47:23;;;;;;;16.10;10.90;;;7.30;99.90;;;;;;5062424;28;20781;-71
2022/03/31 00:49:49;;;;;;;20.90;12.73;;;7.50;99.90;;;;;;5067136;28;20360;-71
2022/03/31 00:52:14;;;;;;;18.27;12.40;;;7.20;99.90;;;;;;5068308;28;20169;-71
2022/03/31 00:54:41;;;;;;;16.47;11.50;;;7.20;99.90;;;;;;5064964;28;20193;-71
2022/03/31 00:57:10;;;;;;;18.60;12.37;;;7.20;99.90;;;;;;5060939;28;20233;-72
2022/03/31 00:59:36;;;;;;;18.43;12.17;;;7.20;99.90;;;;;;5065150;28;20469;-71
2022/03/31 01:02:02;;;;;;;18.77;12.37;;;7.20;99.90;;;;;;5076103;28;20842;-71
2022/03/31 01:04:29;;;;;;;16.97;11.77;;;7.20;99.90;;;;;;5082493;28;20960;-71
2022/03/31 01:06:55;;;;;;;19.90;12.83;;;7.20;99.90;;;;;;5070449;28;20414;-71
2022/03/31 01:09:21;;;;;;;18.37;12.20;;;7.20;99.90;;;;;;5065863;28;20492;-71
2022/03/31 01:11:47;;;;;;;19.33;12.90;;;7.10;99.90;;;;;;5071027;28;20513;-71
2022/03/31 01:14:13;;;;;;;19.20;12.30;;;7.10;99.90;;;;;;5070797;28;20615;-71
2022/03/31 01:16:39;;;;;;;16.83;11.90;;;7.20;99.90;;;;;;5068200;28;20184;-71
2022/03/31 01:19:06;;;;;;;19.80;12.93;;;7.20;99.90;;;;;;5069066;28;20200;-71
2022/03/31 01:21:39;;;;;;;19.70;13.10;;;7.20;99.90;;;;;;5070537;28;20456;-71
2022/03/31 01:24:06;;;;;;;19.60;13.03;;;7.10;99.90;;;;;;5051838;28;20929;-70
2022/03/31 01:26:33;;;;;;;18.40;13.00;;;7.10;99.90;;;;;;5053843;28;20739;-73
2022/03/31 01:28:58;;;;;;;22.13;13.97;;;7.10;99.90;;;;;;5056971;28;20414;-70
2022/03/31 01:31:24;;;;;;;20.10;13.43;;;7.10;99.90;;;;;;5062926;28;20471;-70
2022/03/31 01:33:49;;;;;;;20.77;13.70;;;7.10;99.90;;;;;;5068973;28;20199;-71
2022/03/31 01:36:15;;;;;;;19.43;13.47;;;7.10;99.90;;;;;;5070200;28;20273;-70
2022/03/31 01:38:40;;;;;;;19.97;13.00;;;7.00;99.90;;;;;;5071352;28;20200;-70
2022/03/31 01:41:07;;;;;;;18.23;11.83;;;7.00;99.90;;;;;;5057035;28;20247;-70
2022/03/31 01:43:32;;;;;;;20.90;14.10;;;7.00;99.90;;;;;;5065707;28;20176;-70
2022/03/31 01:45:58;;;;;;;21.67;14.07;;;7.00;99.90;;;;;;5068699;28;20525;-71
2022/03/31 01:48:24;;;;;;;19.40;13.10;;;7.00;99.90;;;;;;5066565;28;20177;-70
2022/03/31 01:50:50;;;;;;;20.43;13.30;;;6.90;99.90;;;;;;5060335;28;20209;-70
2022/03/31 01:53:16;;;;;;;19.67;13.10;;;6.90;99.90;;;;;;5070550;28;20297;-71
2022/03/31 01:55:41;;;;;;;19.83;12.30;;;6.80;99.90;;;;;;5062375;28;20514;-70
2022/03/31 01:58:07;;;;;;;19.80;13.20;;;6.80;99.90;;;;;;5061927;28;20210;-70
2022/03/31 02:00:33;;;;;;;20.53;13.67;;;7.00;99.90;;;;;;5057491;28;20211;-70
2022/03/31 02:02:59;;;;;;;25.07;14.60;;;6.80;99.90;;;;;;5060926;28;20788;-70
2022/03/31 02:05:25;;;;;;;21.57;14.30;;;6.80;99.90;;;;;;5065788;28;20178;-71
2022/03/31 02:07:57;;;;;;;20.03;13.07;;;6.80;99.90;;;;;;5049945;28;20170;-70
2022/03/31 02:10:26;;;;;;;18.37;13.00;;;6.80;99.90;;;;;;5051150;28;20462;-70
2022/03/31 02:12:53;;;;;;;21.67;13.90;;;6.90;99.90;;;;;;5061587;28;20901;-70
2022/03/31 02:15:22;;;;;;;23.60;13.87;;;6.80;99.90;;;;;;5069546;28;20417;-70
2022/03/31 02:17:48;;;;;;;19.57;13.60;;;6.70;99.90;;;;;;5069792;28;20410;-70
2022/03/31 02:20:15;;;;;;;22.20;14.73;;;7.10;99.90;;;;;;5063431;28;20469;-70
2022/03/31 02:22:41;;;;;;;24.00;15.00;;;6.90;99.90;;;;;;5063952;28;20505;-70
2022/03/31 02:25:08;;;;;;;19.70;14.07;;;6.60;99.90;;;;;;5068363;28;20901;-70
2022/03/31 02:27:35;;;;;;;22.40;14.93;;;6.60;99.90;;;;;;5051914;28;21007;-70
2022/03/31 02:30:02;;;;;;;23.47;13.77;;;6.50;99.90;;;;;;5068343;28;20467;-70
2022/03/31 02:32:28;;;;;;;23.03;14.00;;;6.50;99.90;;;;;;5063898;28;20501;-70
2022/03/31 02:34:54;;;;;;;20.63;13.73;;;6.60;99.90;;;;;;5067203;28;20525;-70
2022/03/31 02:37:19;;;;;;;19.67;13.40;;;6.60;99.90;;;;;;5057783;28;20283;-70
2022/03/31 02:39:45;;;;;;;22.70;14.40;;;6.60;99.90;;;;;;5060759;28;20586;-70
2022/03/31 02:42:10;;;;;;;21.63;13.70;;;6.60;99.90;;;;;;5054939;28;20554;-70
2022/03/31 02:44:36;;;;;;;23.27;14.63;;;6.50;99.90;;;;;;5049804;28;20211;-70
2022/03/31 02:47:01;;;;;;;20.50;13.07;;;6.50;99.90;;;;;;5049052;28;20193;-70
2022/03/31 02:49:27;;;;;;;22.20;14.80;;;6.50;99.90;;;;;;5049553;28;20631;-69
2022/03/31 02:51:52;;;;;;;23.23;14.63;;;6.50;99.90;;;;;;5065721;28;20545;-70
2022/03/31 02:57:02;;;;;;;24.13;14.73;;;6.50;99.90;;;;;;5065100;28;20203;-70
2022/03/31 02:59:30;;;;;;;23.20;14.63;;;6.50;99.90;;;;;;5068695;28;20545;-70
2022/03/31 03:01:56;;;;;;;20.70;13.33;;;6.40;99.90;;;;;;5062379;28;20424;-70
2022/03/31 03:04:22;;;;;;;19.73;13.00;;;6.40;99.90;;;;;;5049371;28;20466;-71
2022/03/31 03:06:47;;;;;;;21.70;14.30;;;6.50;99.90;;;;;;5045761;28;20842;-70
2022/03/31 03:09:13;;;;;;;19.67;13.20;;;6.40;99.90;;;;;;5047528;28;20169;-70
2022/03/31 03:11:38;;;;;;;21.43;13.80;;;6.40;99.90;;;;;;5050607;28;20261;-70
2022/03/31 03:14:04;;;;;;;20.27;13.00;;;6.40;99.90;;;;;;5068116;28;20191;-70
2022/03/31 03:16:30;;;;;;;21.30;14.07;;;6.40;99.90;;;;;;5060634;28;20173;-70
2022/03/31 03:18:55;;;;;;;23.73;14.53;;;6.70;99.90;;;;;;5068783;28;20196;-70
2022/03/31 03:21:21;;;;;;;23.60;13.87;;;6.40;99.90;;;;;;5068762;28;20280;-70
2022/03/31 03:23:48;;;;;;;23.57;15.00;;;6.30;99.90;;;;;;5068964;28;20579;-70
2022/03/31 03:26:14;;;;;;;18.70;13.10;;;6.30;99.90;;;;;;5064453;28;20784;-70
2022/03/31 03:28:39;;;;;;;23.33;14.87;;;6.30;99.90;;;;;;5066779;28;20411;-70
2022/03/31 03:31:06;;;;;;;26.30;14.80;;;6.20;99.90;;;;;;5064026;28;20204;-69
2022/03/31 03:33:33;;;;;;;20.57;14.60;;;6.30;99.90;;;;;;5047264;28;20185;-70
2022/03/31 03:35:59;;;;;;;23.80;14.50;;;6.20;99.90;;;;;;5051856;28;20427;-70
2022/03/31 03:38:25;;;;;;;22.30;14.20;;;6.20;99.90;;;;;;5067679;28;20420;-70
2022/03/31 03:40:51;;;;;;;23.10;14.13;;;6.20;99.90;;;;;;5066225;28;20497;-70
2022/03/31 03:43:16;;;;;;;24.23;14.17;;;6.20;99.90;;;;;;5046212;28;20188;-70
2022/03/31 03:45:42;;;;;;;22.77;15.00;;;6.30;99.90;;;;;;5064944;28;20172;-70
2022/03/31 03:48:10;;;;;;;23.23;15.30;;;6.10;99.90;;;;;;5068441;28;20578;-70
2022/03/31 03:50:36;;;;;;;22.83;14.90;;;6.10;99.90;;;;;;5068834;28;20188;-70
2022/03/31 03:53:03;;;;;;;22.17;14.00;;;6.10;99.90;;;;;;5074202;28;20417;-70
2022/03/31 03:55:30;;;;;;;26.00;14.97;;;6.00;99.90;;;;;;5060128;28;20181;-70
2022/03/31 03:57:56;;;;;;;24.87;15.00;;;6.30;99.90;;;;;;5065672;28;20823;-70
2022/03/31 04:00:22;;;;;;;21.13;13.80;;;6.00;99.90;;;;;;5067720;28;20463;-70
2022/03/31 04:02:47;;;;;;;24.93;14.70;;;6.00;99.90;;;;;;5048830;28;20750;-70
2022/03/31 04:05:13;;;;;;;21.83;13.90;;;5.90;99.90;;;;;;5048528;28;20456;-70
2022/03/31 04:07:39;;;;;;;24.33;16.13;;;6.00;99.90;;;;;;5048756;28;20260;-70
2022/03/31 04:10:05;;;;;;;26.03;15.63;;;6.00;99.90;;;;;;5047723;28;20353;-70
2022/03/31 04:12:30;;;;;;;22.60;14.57;;;6.10;99.90;;;;;;5048512;28;20728;-70
2022/03/31 04:14:56;;;;;;;23.00;14.57;;;6.20;99.90;;;;;;5051623;28;20419;-71
2022/03/31 04:17:21;;;;;;;24.60;15.97;;;6.20;99.90;;;;;;5063664;28;20208;-70
2022/03/31 04:19:47;;;;;;;20.60;14.40;;;6.20;99.90;;;;;;5059808;28;20258;-70
2022/03/31 04:22:13;;;;;;;23.23;15.10;;;6.50;99.90;;;;;;5073583;28;20547;-71
2022/03/31 04:24:39;;;;;;;25.60;15.10;;;6.30;99.90;;;;;;5067673;28;20338;-71
2022/03/31 04:27:05;;;;;;;22.37;13.83;;;6.60;99.90;;;;;;5049431;28;20196;-70
2022/03/31 04:29:30;;;;;;;19.13;13.73;;;6.70;99.90;;;;;;5048335;28;20404;-70
2022/03/31 04:31:56;;;;;;;20.43;13.93;;;6.30;99.90;;;;;;5060451;28;20213;-70
2022/03/31 04:34:21;;;;;;;22.87;15.00;;;6.50;99.90;;;;;;5050396;28;20248;-72
2022/03/31 04:36:47;;;;;;;24.20;15.30;;;6.30;99.90;;;;;;5051534;28;20258;-71
2022/03/31 04:39:14;;;;;;;23.63;15.63;;;6.40;99.90;;;;;;5063756;28;20193;-71
2022/03/31 04:41:40;;;;;;;23.60;15.17;;;6.40;99.90;;;;;;5062300;28;20203;-71
2022/03/31 04:44:06;;;;;;;22.60;14.70;;;6.40;99.90;;;;;;5049201;28;20446;-71
2022/03/31 04:46:33;;;;;;;23.37;15.80;;;6.40;99.90;;;;;;5056605;28;20425;-71
2022/03/31 04:48:59;;;;;;;23.53;15.83;;;6.40;99.90;;;;;;5047934;28;20512;-71
2022/03/31 04:51:25;;;;;;;22.90;14.40;;;6.70;99.90;;;;;;5070978;28;20850;-71
2022/03/31 04:53:50;;;;;;;23.70;14.50;;;6.40;99.90;;;;;;5051035;28;20633;-71
2022/03/31 04:56:16;;;;;;;24.10;15.27;;;6.40;99.90;;;;;;5046873;28;20177;-71
2022/03/31 04:58:42;;;;;;;23.57;15.17;;;6.40;99.90;;;;;;5046372;28;20177;-70
2022/03/31 05:01:07;;;;;;;24.03;15.13;;;6.30;99.90;;;;;;5056067;28;20291;-71
2022/03/31 05:03:33;;;;;;;24.83;15.20;;;6.40;99.90;;;;;;5060352;28;20191;-71
2022/03/31 05:05:58;;;;;;;23.10;14.73;;;6.50;99.90;;;;;;5066550;28;20674;-72
2022/03/31 05:08:24;;;;;;;23.90;14.43;;;6.40;99.90;;;;;;5058402;28;20179;-71
2022/03/31 05:10:50;;;;;;;22.73;14.03;;;6.30;99.90;;;;;;5058597;28;20196;-71
2022/03/31 05:13:15;;;;;;;23.47;15.20;;;6.30;99.90;;;;;;5065057;28;20220;-71
2022/03/31 05:15:41;;;;;;;22.93;15.37;;;6.30;99.90;;;;;;5066913;28;20168;-71
2022/03/31 05:18:06;;;;;;;23.00;14.63;;;6.30;99.90;;;;;;5058508;28;20506;-70
2022/03/31 05:20:32;;;;;;;21.70;13.37;;;6.20;99.90;;;;;;5073806;28;20402;-70
2022/03/31 05:22:58;;;;;;;24.30;14.37;;;6.20;99.90;;;;;;5067068;28;20176;-71
2022/03/31 05:25:24;;;;;;;22.57;14.30;;;6.20;99.90;;;;;;5065746;28;20267;-71
2022/03/31 05:27:51;;;;;;;20.87;13.20;;;6.20;99.90;;;;;;5065181;28;20535;-70
2022/03/31 05:30:21;;;;;;;21.57;14.23;;;6.60;99.90;;;;;;5050490;28;20980;-72
2022/03/31 05:32:47;;;;;;;21.00;14.07;;;6.20;99.90;;;;;;5057591;28;20452;-71
2022/03/31 05:35:13;;;;;;;19.97;13.03;;;6.20;99.90;;;;;;5069972;28;20885;-71
2022/03/31 05:37:40;;;;;;;21.63;13.90;;;6.20;99.90;;;;;;5065275;28;20480;-71
2022/03/31 05:40:07;;;;;;;22.83;14.07;;;6.20;99.90;;;;;;5061638;28;20474;-71
2022/03/31 05:42:34;;;;;;;23.40;14.43;;;6.20;99.90;;;;;;5060883;28;20449;-72
2022/03/31 05:45:00;;;;;;;21.30;13.37;;;6.30;99.90;;;;;;5067974;28;20427;-71
2022/03/31 05:47:27;;;;;;;21.70;14.30;;;6.30;99.90;;;;;;5070599;28;20429;-71
2022/03/31 05:49:53;;;;;;;21.60;14.37;;;6.30;99.90;;;;;;5067813;28;20452;-71
2022/03/31 05:52:19;;;;;;;19.93;12.93;;;6.40;99.90;;;;;;5078023;28;20436;-71
2022/03/31 05:54:45;;;;;;;18.63;12.93;;;6.40;99.90;;;;;;5069123;28;20434;-71
2022/03/31 05:57:10;;;;;;;19.90;13.17;;;6.50;99.90;;;;;;5066144;28;20423;-71
2022/03/31 05:59:36;;;;;;;18.40;12.00;;;6.70;99.90;;;;;;5066821;28;20345;-72
2022/03/31 06:02:02;;;;;;;19.47;11.63;;;6.70;99.90;;;;;;5068535;28;20637;-72
2022/03/31 06:04:28;;;;;;;16.63;12.50;;;6.70;99.90;;;;;;5063062;28;20231;-71
2022/03/31 06:06:53;;;;;;;16.83;11.57;;;6.80;99.90;;;;;;5068637;28;20303;-72
2022/03/31 06:09:19;;;;;;;18.77;11.83;;;6.90;99.90;;;;;;5069464;28;20553;-72
2022/03/31 06:11:44;;;;;;;16.70;12.20;;;6.90;99.90;;;;;;5065808;28;20438;-73
2022/03/31 06:14:11;;;;;;;14.53;11.33;;;7.10;99.90;;;;;;5051807;28;20905;-73
2022/03/31 06:16:37;;;;;;;15.90;11.47;;;7.40;99.90;;;;;;5050140;28;20173;-73
2022/03/31 06:19:03;;;;;;;18.70;12.03;;;7.60;99.90;;;;;;5060949;28;20743;-73
2022/03/31 06:21:30;;;;;;;19.53;11.37;;;7.70;99.90;;;;;;5063746;28;20524;-73
2022/03/31 06:23:56;;;;;;;16.53;11.20;;;7.70;99.90;;;;;;5068005;28;20434;-73
2022/03/31 06:26:22;;;;;;;15.10;10.70;;;7.70;99.90;;;;;;5063294;28;20805;-73
2022/03/31 06:28:48;;;;;;;16.17;11.23;;;7.70;99.90;;;;;;5066975;28;20180;-73
2022/03/31 06:31:13;;;;;;;16.67;11.40;;;7.80;99.90;;;;;;5058199;28;20443;-73
2022/03/31 06:33:39;;;;;;;17.83;11.43;;;7.90;99.90;;;;;;5067976;28;20569;-73
2022/03/31 06:36:05;;;;;;;17.73;11.70;;;7.80;99.90;;;;;;5062810;28;20299;-72
2022/03/31 06:38:30;;;;;;;19.90;11.80;;;7.90;99.90;;;;;;5066382;28;20184;-72
2022/03/31 06:41:13;;;;;;;16.30;11.40;;;7.80;99.90;;;;;;5056090;28;20690;-72
2022/03/31 06:43:40;;;;;;;19.10;11.37;;;7.90;99.90;;;;;;5068181;28;20229;-72
2022/03/31 06:46:07;;;;;;;17.50;11.87;;;8.00;99.90;;;;;;5062330;28;21130;-72
2022/03/31 06:48:35;;;;;;;16.93;11.00;;;8.20;99.90;;;;;;5057058;28;20439;-72
2022/03/31 06:51:02;;;;;;;16.80;11.33;;;8.20;99.90;;;;;;5052780;28;20961;-72
2022/03/31 06:53:27;;;;;;;15.13;10.40;;;8.40;99.90;;;;;;5058819;28;20432;-71
2022/03/31 06:55:53;;;;;;;15.07;10.70;;;8.40;99.90;;;;;;5063347;28;20429;-72
2022/03/31 06:58:21;;;;;;;15.60;11.00;;;8.60;99.90;;;;;;5066903;28;20246;-72
2022/03/31 07:00:47;;;;;;;17.20;10.83;;;8.80;99.90;;;;;;5066070;28;20204;-72
2022/03/31 07:03:12;;;;;;;15.93;11.50;;;8.90;99.90;;;;;;5062734;28;20422;-72
2022/03/31 07:05:38;;;;;;;15.27;10.70;;;8.90;99.90;;;;;;5073019;28;20276;-72
2022/03/31 07:08:04;;;;;;;16.43;11.57;;;8.90;99.90;;;;;;5066106;28;20661;-71
2022/03/31 07:10:30;;;;;;;17.80;11.40;;;8.80;99.90;;;;;;5052822;28;20208;-72
2022/03/31 07:12:56;;;;;;;16.77;10.93;;;8.80;99.90;;;;;;5062563;28;20467;-72
2022/03/31 07:15:22;;;;;;;15.53;11.27;;;8.90;99.90;;;;;;5081008;28;20175;-71
2022/03/31 07:17:48;;;;;;;16.70;10.80;;;8.90;99.90;;;;;;5068948;28;20187;-72
2022/03/31 07:20:13;;;;;;;16.50;11.13;;;8.90;99.90;;;;;;5082934;28;20238;-72
2022/03/31 07:22:47;;;;;;;16.03;11.80;;;8.70;99.90;;;;;;5059525;28;21015;-72
2022/03/31 07:25:13;;;;;;;18.83;11.60;;;9.10;99.90;;;;;;5067505;28;20629;-72
2022/03/31 07:27:40;;;;;;;16.43;11.07;;;9.30;99.90;;;;;;5061904;28;20423;-72
2022/03/31 07:30:06;;;;;;;15.90;11.17;;;9.50;99.90;;;;;;5064225;28;20510;-72
2022/03/31 07:32:33;;;;;;;15.03;10.50;;;9.60;99.90;;;;;;5062430;28;20467;-72
2022/03/31 07:35:00;;;;;;;14.10;10.30;;;9.80;99.90;;;;;;5081375;28;20406;-72
2022/03/31 07:37:26;;;;;;;15.70;11.60;;;9.90;99.90;;;;;;5066647;28;20422;-73
2022/03/31 07:39:51;;;;;;;15.07;10.50;;;9.90;99.90;;;;;;5068199;28;20454;-72
2022/03/31 07:42:17;;;;;;;14.00;10.60;;;9.90;99.90;;;;;;5067100;28;20941;-72
2022/03/31 07:44:43;;;;;;;16.27;11.20;;;9.70;99.90;;;;;;5057777;28;20268;-72
2022/03/31 07:47:09;;;;;;;14.63;11.13;;;9.80;99.90;;;;;;5062330;28;20168;-72
2022/03/31 07:49:34;;;;;;;14.73;11.13;;;10.00;99.90;;;;;;5064060;28;20187;-72
2022/03/31 07:52:01;;;;;;;16.17;10.50;;;10.10;99.90;;;;;;5075455;28;20834;-72
2022/03/31 07:54:26;;;;;;;13.30;11.07;;;10.10;99.90;;;;;;5066827;28;20259;-72
2022/03/31 07:56:52;;;;;;;15.27;11.47;;;10.10;99.90;;;;;;5061998;28;20505;-72
2022/03/31 07:59:23;;;;;;;14.50;10.70;;;10.00;99.90;;;;;;5061372;28;20290;-72
2022/03/31 08:01:49;;;;;;;15.30;11.13;;;10.00;99.90;;;;;;5060473;28;20470;-72
2022/03/31 08:04:16;;;;;;;16.07;11.37;;;10.50;99.90;;;;;;5060047;28;20913;-72
2022/03/31 08:06:43;;;;;;;15.57;11.83;;;10.20;99.90;;;;;;5053055;28;20192;-72
2022/03/31 08:09:10;;;;;;;17.10;12.20;;;10.40;99.90;;;;;;5068149;28;20474;-72
2022/03/31 08:11:36;;;;;;;14.70;10.70;;;10.50;99.90;;;;;;5074153;28;20852;-72
2022/03/31 08:14:02;;;;;;;16.40;12.00;;;10.80;99.90;;;;;;5065373;22;20538;-73
2022/03/31 08:16:28;;;;;;;16.70;11.53;;;10.80;99.90;;;;;;5017596;28;20228;-74
2022/03/31 08:18:54;;;;;;;14.30;10.70;;;11.00;99.90;;;;;;5025166;28;20898;-73
2022/03/31 08:21:19;;;;;;;14.00;11.20;;;11.10;99.90;;;;;;5020982;28;20220;-74
2022/03/31 08:23:45;;;;;;;13.73;10.60;;;11.10;99.90;;;;;;5025749;28;20950;-72
2022/03/31 08:26:10;;;;;;;16.67;12.10;;;10.90;99.90;;;;;;5025776;28;20227;-74
2022/03/31 08:28:36;;;;;;;17.50;10.80;;;11.00;99.90;;;;;;5015271;28;20173;-71
2022/03/31 08:31:02;;;;;;;15.10;10.90;;;10.90;99.90;;;;;;5025901;28;20477;-73
2022/03/31 08:33:27;;;;;;;16.77;10.60;;;10.90;99.90;;;;;;5025818;28;20698;-73
2022/03/31 08:35:53;;;;;;;17.80;12.17;;;11.10;99.90;;;;;;5025650;28;20210;-74
2022/03/31 08:38:18;;;;;;;14.57;11.40;;;11.20;99.90;;;;;;5025312;28;20184;-73
2022/03/31 08:40:44;;;;;;;14.90;10.93;;;11.20;99.90;;;;;;5026204;28;20288;-73
2022/03/31 08:43:10;;;;;;;17.30;11.90;;;11.30;99.90;;;;;;5035654;28;20614;-72
2022/03/31 08:45:36;;;;;;;23.40;12.10;;;11.40;99.90;;;;;;5037672;28;20503;-72
2022/03/31 08:48:02;;;;;;;15.40;11.37;;;11.50;99.90;;;;;;5029048;28;20257;-73
2022/03/31 08:50:28;;;;;;;16.10;10.80;;;11.50;99.90;;;;;;5027023;28;20181;-73
2022/03/31 08:52:54;;;;;;;16.00;11.50;;;11.70;99.90;;;;;;5025375;28;20417;-73
2022/03/31 08:55:20;;;;;;;19.90;11.60;;;11.50;99.90;;;;;;5025478;28;20235;-73
2022/03/31 08:57:50;;;;;;;18.60;11.60;;;11.90;99.90;;;;;;5026354;28;20182;-72
2022/03/31 09:00:19;;;;;;;16.07;11.80;;;11.90;99.90;;;;;;5026665;28;20449;-73
2022/03/31 09:02:53;;;;;;;16.00;11.27;;;11.80;99.90;;;;;;5022806;28;20842;-73
2022/03/31 09:05:18;;;;;;;14.70;10.70;;;11.80;99.90;;;;;;5028021;28;20468;-72
2022/03/31 09:07:58;;;;;;;14.97;11.20;;;11.70;99.90;;;;;;5031526;28;20455;-74
2022/03/31 09:10:30;;;;;;;16.70;12.20;;;11.40;99.90;;;;;;5011171;28;20177;-72
2022/03/31 09:12:57;;;;;;;15.57;11.40;;;11.40;99.90;;;;;;5016099;28;20906;-71
2022/03/31 09:15:23;;;;;;;16.83;11.40;;;11.60;99.90;;;;;;5032449;28;20435;-72
2022/03/31 09:17:57;;;;;;;15.87;11.90;;;11.40;99.90;;;;;;5029744;28;20425;-72
2022/03/31 09:20:23;;;;;;;16.20;11.30;;;11.10;99.90;;;;;;5030633;28;20198;-73
2022/03/31 09:22:50;;;;;;;15.40;10.97;;;11.10;99.90;;;;;;5030089;28;20490;-73
2022/03/31 09:25:29;;;;;;;14.63;11.03;;;11.30;99.90;;;;;;5029079;28;20929;-72
2022/03/31 09:27:55;;;;;;;15.43;11.10;;;11.60;99.90;;;;;;5013108;28;20412;-72
2022/03/31 09:30:24;;;;;;;14.43;10.93;;;11.90;99.90;;;;;;5011730;28;20435;-74
2022/03/31 09:32:51;;;;;;;16.77;11.17;;;12.20;99.90;;;;;;5030239;28;20423;-75
2022/03/31 09:35:21;;;;;;;14.60;11.37;;;12.40;99.90;;;;;;5027089;28;20968;-73
2022/03/31 09:37:49;;;;;;;14.10;10.50;;;12.70;99.90;;;;;;5026195;28;20478;-72
2022/03/31 09:40:18;;;;;;;17.10;12.30;;;12.80;99.90;;;;;;5011243;28;20509;-73
2022/03/31 09:42:57;;;;;;;14.33;10.97;;;13.00;99.90;;;;;;5030402;28;20443;-73
2022/03/31 09:45:22;;;;;;;16.17;11.37;;;13.30;99.90;;;;;;5020207;28;20523;-72
2022/03/31 09:47:51;;;;;;;17.80;12.10;;;13.60;99.90;;;;;;5039147;28;20864;-73
2022/03/31 09:50:18;;;;;;;14.63;11.53;;;13.80;99.90;;;;;;5011827;28;20289;-72
2022/03/31 09:52:44;;;;;;;15.90;11.20;;;13.70;99.90;;;;;;5030116;28;20424;-73
2022/03/31 09:55:10;;;;;;;23.13;15.23;;;13.50;99.90;;;;;;5028391;28;20441;-73
2022/03/31 09:57:38;;;;;;;24.73;14.73;;;13.50;99.90;;;;;;5030292;28;20178;-73
2022/03/31 10:00:06;;;;;;;17.60;11.97;;;13.30;99.90;;;;;;5011975;28;20562;-72
2022/03/31 10:02:34;;;;;;;14.90;11.40;;;13.30;99.90;;;;;;5011098;28;20448;-73
2022/03/31 10:05:00;;;;;;;15.33;11.50;;;13.10;99.90;;;;;;5030271;28;20440;-73
2022/03/31 10:07:28;;;;;;;15.17;12.20;;;13.00;99.90;;;;;;5029346;28;20507;-73
2022/03/31 10:09:54;;;;;;;16.30;11.70;;;13.00;99.90;;;;;;5028596;28;20265;-74
2022/03/31 10:12:32;;;;;;;15.60;11.60;;;13.00;99.90;;;;;;5029625;28;20503;-72
2022/03/31 10:15:15;;;;;;;15.17;11.47;;;13.20;99.90;;;;;;5037669;28;20201;-71
2022/03/31 10:17:43;;;;;;;15.07;11.20;;;13.10;99.90;;;;;;5028587;28;20429;-72
2022/03/31 10:20:14;;;;;;;14.90;11.10;;;12.80;99.90;;;;;;5027263;28;20539;-72
2022/03/31 10:25:38;;;;;;;15.77;11.50;;;12.70;99.90;;;;;;5028702;28;20567;-72
2022/03/31 10:28:08;;;;;;;12.67;10.60;;;12.70;99.90;;;;;;5028748;28;20917;-72
2022/03/31 10:30:34;;;;;;;15.93;11.30;;;12.70;99.90;;;;;;5011552;28;20515;-72
2022/03/31 10:33:02;;;;;;;16.53;11.90;;;12.90;99.90;;;;;;5029473;28;20884;-72
2022/03/31 10:35:33;;;;;;;15.03;10.87;;;13.10;99.90;;;;;;5029730;28;20262;-73
2022/03/31 10:38:20;;;;;;;17.40;11.30;;;13.10;99.90;;;;;;5029259;28;20421;-71
2022/03/31 10:40:51;;;;;;;19.50;11.60;;;13.20;99.90;;;;;;5026781;28;20524;-72
2022/03/31 10:43:24;;;;;;;16.30;11.03;;;13.40;99.90;;;;;;5011364;28;20522;-72
2022/03/31 10:45:51;;;;;;;13.43;10.70;;;13.60;99.90;;;;;;5035865;28;20496;-74
2022/03/31 10:48:19;;;;;;;15.37;11.30;;;13.60;99.90;;;;;;5019228;28;21027;-73
2022/03/31 10:50:47;;;;;;;26.13;11.07;;;13.60;99.90;;;;;;5024572;28;20452;-73
2022/03/31 10:53:12;;;;;;;15.77;11.83;;;13.70;99.90;;;;;;5027218;28;20448;-75
2022/03/31 10:55:49;;;;;;;16.33;11.80;;;13.60;99.90;;;;;;5025399;28;20497;-73
2022/03/31 10:58:28;;;;;;;14.63;11.10;;;13.50;99.90;;;;;;5028080;28;20600;-73
2022/03/31 11:01:06;;;;;;;14.97;9.90;;;13.60;99.90;;;;;;5023371;28;20543;-73
2022/03/31 11:03:31;;;;;;;14.87;11.07;;;13.40;99.90;;;;;;5028416;28;20479;-71
2022/03/31 11:06:00;;;;;;;15.43;11.77;;;13.20;99.90;;;;;;5028576;28;20421;-74
2022/03/31 11:08:26;;;;;;;16.17;11.93;;;12.90;99.90;;;;;;5029421;28;20190;-73
2022/03/31 11:10:53;;;;;;;16.30;11.90;;;12.70;99.90;;;;;;5028637;28;20435;-73
2022/03/31 11:13:33;;;;;;;15.27;11.67;;;12.70;99.90;;;;;;5029378;28;20452;-74
2022/03/31 11:15:58;;;;;;;14.47;11.60;;;12.70;99.90;;;;;;5039146;28;20477;-72
2022/03/31 11:18:24;;;;;;;17.10;12.10;;;12.70;99.90;;;;;;5034650;28;20792;-73
2022/03/31 11:21:01;;;;;;;16.60;11.73;;;12.60;99.90;;;;;;5028051;28;20197;-72
2022/03/31 11:23:28;;;;;;;18.63;12.47;;;12.40;99.90;;;;;;5028970;28;20261;-73
2022/03/31 11:25:54;;;;;;;18.23;11.90;;;12.30;99.90;;;;;;5027307;28;20413;-72
2022/03/31 11:28:20;;;;;;;15.13;11.77;;;12.40;99.90;;;;;;5026969;28;20412;-73
2022/03/31 11:30:48;;;;;;;15.63;12.33;;;12.50;99.90;;;;;;5010569;28;20963;-73
2022/03/31 11:33:14;;;;;;;15.27;12.10;;;12.60;99.90;;;;;;5028249;28;20659;-73
2022/03/31 11:35:41;;;;;;;19.00;13.53;;;12.70;99.90;;;;;;5010875;28;20420;-73
2022/03/31 11:38:14;;;;;;;15.90;12.17;;;12.50;99.90;;;;;;5016079;28;20424;-73
2022/03/31 11:40:44;;;;;;;18.80;13.33;;;12.40;99.90;;;;;;5027996;28;20555;-73
2022/03/31 11:43:12;;;;;;;16.03;11.93;;;12.50;99.90;;;;;;5027715;28;20960;-72
2022/03/31 11:45:43;;;;;;;19.90;12.17;;;12.60;99.90;;;;;;5010015;28;20425;-73
2022/03/31 11:48:12;;;;;;;19.17;13.40;;;12.70;99.90;;;;;;5025569;28;20420;-72
2022/03/31 11:50:49;;;;;;;16.63;12.70;;;12.70;99.90;;;;;;5028039;28;20568;-73
2022/03/31 11:53:24;;;;;;;16.53;11.70;;;12.50;99.90;;;;;;5027852;28;20428;-74
2022/03/31 11:56:04;;;;;;;17.30;11.73;;;12.60;99.90;;;;;;5027102;28;20440;-73
2022/03/31 11:58:33;;;;;;;16.00;11.87;;;12.70;99.90;;;;;;5028606;28;20494;-73
2022/03/31 12:00:59;;;;;;;16.17;11.80;;;12.60;99.90;;;;;;5026950;28;20530;-75
2022/03/31 12:03:36;;;;;;;16.73;11.90;;;12.60;99.90;;;;;;5009787;28;20441;-73
2022/03/31 12:06:03;;;;;;;15.80;11.43;;;12.50;99.90;;;;;;5027834;28;20338;-73
2022/03/31 12:08:29;;;;;;;15.50;11.83;;;12.50;99.90;;;;;;5017624;28;20476;-73
2022/03/31 12:10:56;;;;;;;19.90;12.73;;;12.50;99.90;;;;;;5028487;28;20528;-73
2022/03/31 12:13:24;;;;;;;16.93;12.67;;;12.50;99.90;;;;;;5027166;28;20503;-73
2022/03/31 12:16:10;;;;;;;16.90;12.20;;;12.60;99.90;;;;;;5042595;28;20462;-73
2022/03/31 12:18:36;;;;;;;19.37;12.73;;;12.80;99.90;;;;;;5009269;28;20438;-71
2022/03/31 12:21:06;;;;;;;18.20;12.93;;;12.50;99.90;;;;;;5027243;28;20841;-73
2022/03/31 12:23:32;;;;;;;16.73;12.67;;;12.40;99.90;;;;;;5035571;28;20516;-73
2022/03/31 12:25:58;;;;;;;15.43;11.73;;;12.40;99.90;;;;;;5026245;28;20448;-72
2022/03/31 12:28:24;;;;;;;15.33;11.90;;;12.50;99.90;;;;;;5028591;28;20517;-72
2022/03/31 12:30:56;;;;;;;18.93;14.23;;;12.50;99.90;;;;;;5010127;28;20185;-71
2022/03/31 12:33:27;;;;;;;16.77;12.87;;;12.60;99.90;;;;;;5026879;28;20193;-72
2022/03/31 12:36:05;;;;;;;19.70;13.40;;;12.70;99.90;;;;;;5020585;28;20938;-73
2022/03/31 12:38:36;;;;;;;23.23;13.67;;;12.70;99.90;;;;;;5028875;28;20436;-73